createdAt,value
2018-01-05T00:00:34.475Z,3.55
2018-01-05T00:01:34.461Z,3.58
2018-01-05T00:02:34.440Z,3.54
2018-01-05T00:03:34.433Z,3.61
2018-01-05T00:04:34.411Z,3.60
2018-01-05T00:05:34.399Z,3.65
2018-01-05T00:06:34.388Z,3.52
2018-01-05T00:07:34.375Z,3.58
2018-01-05T00:08:34.363Z,3.57
2018-01-05T00:09:34.351Z,3.45
2018-01-05T00:10:34.323Z,3.40
2018-01-05T00:11:34.316Z,3.40
2018-01-05T00:12:34.300Z,3.48
2018-01-05T00:13:34.286Z,3.50
2018-01-05T00:14:34.274Z,3.61
2018-01-05T00:15:34.262Z,3.61
2018-01-05T00:16:34.244Z,3.55
2018-01-05T00:17:34.231Z,3.58
2018-01-05T00:18:34.216Z,3.60
2018-01-05T00:19:34.197Z,3.62
2018-01-05T00:20:34.186Z,3.72
2018-01-05T00:21:34.168Z,3.72
2018-01-05T00:22:34.158Z,3.75
2018-01-05T00:23:34.145Z,3.73
2018-01-05T00:24:34.129Z,3.73
2018-01-05T00:25:34.116Z,3.61
2018-01-05T00:26:34.101Z,3.68
2018-01-05T00:27:34.090Z,3.65
2018-01-05T00:28:34.076Z,3.65
2018-01-05T00:29:34.064Z,3.66
2018-01-05T00:30:34.043Z,3.61
2018-01-05T00:31:34.032Z,3.58
2018-01-05T00:32:34.014Z,3.51
2018-01-05T00:33:34.004Z,3.55
2018-01-05T00:34:33.985Z,3.57
2018-01-05T00:35:33.973Z,3.54
2018-01-05T00:36:33.954Z,3.60
2018-01-05T00:37:33.942Z,3.57
2018-01-05T00:38:33.928Z,3.52
2018-01-05T00:39:33.920Z,3.45
2018-01-05T00:40:33.903Z,3.45
2018-01-05T00:41:33.889Z,3.47
2018-01-05T00:42:33.870Z,3.55
2018-01-05T00:43:33.854Z,3.43
2018-01-05T00:44:33.843Z,3.42
2018-01-05T00:45:33.832Z,3.48
2018-01-05T00:46:33.814Z,3.47
2018-01-05T00:47:33.799Z,3.45
2018-01-05T00:48:33.784Z,3.57
2018-01-05T00:49:33.768Z,3.57
2018-01-05T00:50:33.759Z,3.61
2018-01-05T00:51:33.744Z,3.55
2018-01-05T00:52:33.732Z,3.61
2018-01-05T00:53:33.716Z,3.61
2018-01-05T00:54:33.701Z,3.52
2018-01-05T00:55:33.684Z,3.50
2018-01-05T00:56:33.678Z,3.66
2018-01-05T00:57:33.656Z,3.51
2018-01-05T00:58:33.642Z,3.66
2018-01-05T00:59:33.631Z,3.72
2018-01-05T01:00:33.614Z,3.72
2018-01-05T01:01:33.599Z,3.80
2018-01-05T01:02:33.585Z,3.83
2018-01-05T01:03:33.570Z,3.78
2018-01-05T01:04:33.556Z,3.83
2018-01-05T01:05:33.533Z,3.84
2018-01-05T01:06:33.528Z,3.83
2018-01-05T01:07:33.511Z,3.86
2018-01-05T01:08:33.501Z,3.80
2018-01-05T01:09:33.485Z,3.87
2018-01-05T01:10:33.474Z,3.91
2018-01-05T01:11:33.456Z,3.94
2018-01-05T01:12:33.443Z,3.86
2018-01-05T01:13:33.432Z,3.97
2018-01-05T01:14:33.413Z,3.94
2018-01-05T01:15:33.399Z,3.76
2018-01-05T01:16:33.390Z,3.90
2018-01-05T01:17:33.370Z,3.79
2018-01-05T01:18:33.358Z,3.88
2018-01-05T01:19:33.342Z,3.91
2018-01-05T01:20:33.330Z,3.94
2018-01-05T01:21:33.314Z,3.94
2018-01-05T01:22:33.300Z,3.84
2018-01-05T01:23:33.278Z,3.86
2018-01-05T01:24:33.272Z,3.79
2018-01-05T01:25:33.254Z,3.73
2018-01-05T01:26:33.236Z,3.83
2018-01-05T01:27:33.227Z,3.83
2018-01-05T01:28:33.215Z,3.86
2018-01-05T01:29:33.200Z,3.91
2018-01-05T01:30:33.188Z,3.88
2018-01-05T01:31:33.167Z,3.79
2018-01-05T01:32:33.158Z,3.80
2018-01-05T01:33:33.144Z,3.83
2018-01-05T01:34:33.129Z,3.78
2018-01-05T01:35:33.115Z,3.80
2018-01-05T01:36:33.101Z,3.76
2018-01-05T01:37:33.092Z,3.75
2018-01-05T01:38:33.069Z,3.69
2018-01-05T01:39:33.058Z,3.69
2018-01-05T01:40:33.046Z,3.61
2018-01-05T01:41:33.027Z,3.72
2018-01-05T01:42:33.013Z,3.72
2018-01-05T01:43:33.002Z,3.83
2018-01-05T01:44:32.990Z,3.80
2018-01-05T01:45:32.968Z,3.80
2018-01-05T01:46:32.955Z,3.86
2018-01-05T01:47:32.944Z,3.93
2018-01-05T01:48:32.931Z,3.91
2018-01-05T01:49:32.915Z,3.94
2018-01-05T01:50:32.902Z,3.80
2018-01-05T01:51:32.884Z,3.86
2018-01-05T01:52:32.881Z,3.83
2018-01-05T01:53:32.862Z,3.83
2018-01-05T01:54:32.845Z,3.87
2018-01-05T01:55:32.831Z,3.78
2018-01-05T01:56:32.813Z,3.83
2018-01-05T01:57:32.800Z,3.87
2018-01-05T01:58:32.786Z,3.80
2018-01-05T01:59:32.771Z,3.79
2018-01-05T02:00:32.757Z,3.83
2018-01-05T02:01:32.741Z,3.78
2018-01-05T02:02:32.731Z,3.83
2018-01-05T02:03:32.715Z,3.84
2018-01-05T02:04:32.704Z,3.73
2018-01-05T02:05:32.690Z,3.75
2018-01-05T02:06:32.672Z,3.83
2018-01-05T02:07:32.663Z,3.83
2018-01-05T02:08:32.649Z,3.78
2018-01-05T02:09:32.632Z,3.72
2018-01-05T02:10:32.616Z,3.79
2018-01-05T02:11:32.600Z,3.72
2018-01-05T02:12:32.586Z,3.70
2018-01-05T02:13:32.569Z,3.75
2018-01-05T02:14:32.556Z,3.70
2018-01-05T02:15:32.539Z,3.75
2018-01-05T02:16:32.532Z,3.69
2018-01-05T02:17:32.515Z,3.60
2018-01-05T02:18:32.500Z,3.57
2018-01-05T02:19:32.488Z,3.65
2018-01-05T02:20:32.473Z,3.62
2018-01-05T02:21:32.462Z,3.62
2018-01-05T02:22:32.443Z,3.58
2018-01-05T02:23:32.431Z,3.65
2018-01-05T02:24:32.414Z,3.61
2018-01-05T02:25:32.403Z,3.61
2018-01-05T02:26:32.387Z,3.66
2018-01-05T02:27:32.374Z,3.66
2018-01-05T02:28:32.360Z,3.52
2018-01-05T02:29:32.343Z,3.52
2018-01-05T02:30:32.335Z,3.60
2018-01-05T02:31:32.322Z,3.61
2018-01-05T02:32:32.306Z,3.47
2018-01-05T02:33:32.301Z,3.51
2018-01-05T02:34:32.274Z,3.54
2018-01-05T02:35:32.261Z,3.51
2018-01-05T02:36:32.247Z,3.43
2018-01-05T02:37:32.227Z,3.43
2018-01-05T02:38:32.214Z,3.42
2018-01-05T02:39:32.206Z,3.57
2018-01-05T02:40:32.185Z,3.58
2018-01-05T02:41:32.181Z,3.52
2018-01-05T02:42:32.161Z,3.52
2018-01-05T02:43:32.147Z,3.65
2018-01-05T02:44:32.128Z,3.61
2018-01-05T02:45:32.120Z,3.51
2018-01-05T02:46:32.103Z,3.55
2018-01-05T02:47:32.089Z,3.55
2018-01-05T02:48:32.075Z,3.57
2018-01-05T02:49:32.060Z,3.45
2018-01-05T02:50:32.046Z,3.43
2018-01-05T02:51:32.033Z,3.42
2018-01-05T02:52:32.016Z,3.43
2018-01-05T02:53:32.008Z,3.43
2018-01-05T02:54:31.993Z,3.43
2018-01-05T02:55:31.974Z,3.43
2018-01-05T02:56:31.963Z,3.54
2018-01-05T02:57:31.948Z,3.51
2018-01-05T02:58:31.929Z,3.62
2018-01-05T02:59:31.917Z,3.69
2018-01-05T03:00:31.900Z,3.60
2018-01-05T03:01:31.889Z,3.78
2018-01-05T03:02:31.872Z,3.73
2018-01-05T03:03:31.861Z,3.76
2018-01-05T03:04:31.852Z,3.72
2018-01-05T03:05:31.830Z,3.72
2018-01-05T03:06:31.822Z,3.69
2018-01-05T03:07:31.802Z,3.70
2018-01-05T03:08:31.790Z,3.70
2018-01-05T03:09:31.777Z,3.65
2018-01-05T03:10:31.759Z,3.72
2018-01-05T03:11:31.748Z,3.72
2018-01-05T03:12:31.728Z,3.73
2018-01-05T03:13:31.716Z,3.60
2018-01-05T03:14:31.696Z,3.62
2018-01-05T03:15:31.685Z,3.57
2018-01-05T03:16:31.671Z,3.57
2018-01-05T03:17:31.664Z,3.45
2018-01-05T03:18:31.648Z,3.43
2018-01-05T03:19:31.626Z,3.45
2018-01-05T03:20:31.621Z,3.43
2018-01-05T03:21:31.599Z,3.40
2018-01-05T03:22:31.584Z,3.47
2018-01-05T03:23:31.571Z,3.39
2018-01-05T03:24:31.566Z,3.36
2018-01-05T03:25:31.543Z,3.43
2018-01-05T03:26:31.528Z,3.48
2018-01-05T03:27:31.510Z,3.45
2018-01-05T03:28:31.498Z,3.42
2018-01-05T03:29:31.487Z,3.36
2018-01-05T03:30:31.476Z,3.45
2018-01-05T03:31:31.463Z,3.39
2018-01-05T03:32:31.441Z,3.33
2018-01-05T03:33:31.430Z,3.29
2018-01-05T03:34:31.413Z,3.33
2018-01-05T03:35:31.402Z,3.35
2018-01-05T03:36:31.385Z,3.26
2018-01-05T03:37:31.373Z,3.33
2018-01-05T03:38:31.356Z,3.23
2018-01-05T03:39:31.345Z,3.31
2018-01-05T03:40:31.329Z,3.24
2018-01-05T03:41:31.314Z,3.20
2018-01-05T03:42:31.305Z,3.28
2018-01-05T03:43:31.288Z,3.31
2018-01-05T03:44:31.271Z,3.28
2018-01-05T03:45:31.258Z,3.29
2018-01-05T03:46:31.247Z,3.26
2018-01-05T03:47:31.229Z,3.32
2018-01-05T03:48:31.214Z,3.29
2018-01-05T03:49:31.202Z,3.28
2018-01-05T03:50:31.191Z,3.31
2018-01-05T03:51:31.172Z,3.36
2018-01-05T03:52:31.159Z,3.35
2018-01-05T03:53:31.147Z,3.36
2018-01-05T03:54:31.132Z,3.26
2018-01-05T03:55:31.114Z,3.35
2018-01-05T03:56:31.097Z,3.28
2018-01-05T03:57:31.087Z,3.31
2018-01-05T03:58:31.073Z,3.35
2018-01-05T03:59:31.061Z,3.31
2018-01-05T04:00:31.043Z,3.28
2018-01-05T04:01:31.030Z,3.32
2018-01-05T04:02:31.017Z,3.42
2018-01-05T04:03:31.002Z,3.36
2018-01-05T04:04:30.988Z,3.40
2018-01-05T04:05:30.970Z,3.40
2018-01-05T04:06:30.961Z,3.36
2018-01-05T04:07:30.943Z,3.39
2018-01-05T04:08:30.932Z,3.42
2018-01-05T04:09:30.919Z,3.43
2018-01-05T04:10:30.904Z,3.43
2018-01-05T04:11:30.888Z,3.47
2018-01-05T04:12:30.876Z,3.42
2018-01-05T04:13:30.859Z,3.47
2018-01-05T04:14:30.842Z,3.51
2018-01-05T04:15:30.828Z,3.42
2018-01-05T04:16:30.817Z,3.55
2018-01-05T04:17:30.805Z,3.58
2018-01-05T04:18:30.788Z,3.62
2018-01-05T04:19:30.774Z,3.76
2018-01-05T04:20:30.755Z,3.66
2018-01-05T04:21:30.743Z,3.61
2018-01-05T04:22:30.730Z,3.72
2018-01-05T04:23:30.718Z,3.61
2018-01-05T04:24:30.699Z,3.72
2018-01-05T04:25:30.715Z,3.70
2018-01-05T04:26:30.677Z,3.75
2018-01-05T04:27:30.659Z,3.76
2018-01-05T04:28:30.646Z,3.72
2018-01-05T04:29:30.630Z,3.79
2018-01-05T04:30:30.624Z,3.76
2018-01-05T04:31:30.603Z,3.69
2018-01-05T04:32:30.593Z,3.72
2018-01-05T04:33:30.576Z,3.75
2018-01-05T04:34:30.560Z,3.75
2018-01-05T04:35:30.546Z,3.73
2018-01-05T04:36:30.531Z,3.62
2018-01-05T04:37:30.520Z,3.70
2018-01-05T04:38:30.504Z,3.58
2018-01-05T04:39:30.489Z,3.66
2018-01-05T04:40:30.477Z,3.60
2018-01-05T04:41:30.462Z,3.65
2018-01-05T04:42:30.447Z,3.55
2018-01-05T04:43:30.424Z,3.51
2018-01-05T04:44:30.420Z,3.55
2018-01-05T04:45:30.405Z,3.57
2018-01-05T04:46:30.387Z,3.45
2018-01-05T04:47:30.373Z,3.58
2018-01-05T04:48:30.358Z,3.43
2018-01-05T04:49:30.343Z,3.39
2018-01-05T04:50:30.335Z,3.48
2018-01-05T04:51:30.318Z,3.45
2018-01-05T04:52:30.305Z,3.45
2018-01-05T04:53:30.292Z,3.39
2018-01-05T04:54:30.277Z,3.48
2018-01-05T04:55:30.262Z,3.45
2018-01-05T04:56:30.248Z,3.40
2018-01-05T04:57:30.235Z,3.43
2018-01-05T04:58:30.216Z,3.48
2018-01-05T04:59:30.209Z,3.40
2018-01-05T05:00:30.189Z,3.47
2018-01-05T05:01:30.179Z,3.43
2018-01-05T05:02:30.161Z,3.42
2018-01-05T05:03:30.140Z,3.39
2018-01-05T05:04:30.133Z,3.33
2018-01-05T05:05:30.119Z,3.36
2018-01-05T05:06:30.109Z,3.31
2018-01-05T05:07:30.090Z,3.28
2018-01-05T05:08:30.077Z,3.24
2018-01-05T05:09:30.066Z,3.29
2018-01-05T05:10:30.047Z,3.26
2018-01-05T05:11:30.035Z,3.29
2018-01-05T05:12:30.023Z,3.26
2018-01-05T05:13:30.004Z,3.28
2018-01-05T05:14:29.990Z,3.24
2018-01-05T05:15:29.975Z,3.20
2018-01-05T05:16:29.963Z,3.20
2018-01-05T05:17:29.948Z,3.13
2018-01-05T05:18:29.934Z,3.06
2018-01-05T05:19:29.920Z,3.06
2018-01-05T05:20:29.906Z,3.10
2018-01-05T05:21:29.892Z,3.10
2018-01-05T05:22:29.879Z,3.15
2018-01-05T05:23:29.866Z,3.08
2018-01-05T05:24:29.850Z,3.11
2018-01-05T05:25:29.839Z,3.03
2018-01-05T05:26:29.826Z,3.03
2018-01-05T05:27:29.807Z,3.00
2018-01-05T05:28:29.792Z,3.08
2018-01-05T05:29:29.779Z,2.99
2018-01-05T05:30:29.766Z,3.06
2018-01-05T05:31:29.754Z,3.20
2018-01-05T05:32:29.734Z,3.17
2018-01-05T05:33:29.723Z,3.13
2018-01-05T05:34:29.710Z,3.11
2018-01-05T05:35:29.692Z,3.15
2018-01-05T05:36:29.679Z,3.14
2018-01-05T05:37:29.658Z,3.21
2018-01-05T05:38:29.646Z,3.18
2018-01-05T05:39:29.632Z,3.11
2018-01-05T05:40:29.623Z,3.24
2018-01-05T05:41:29.606Z,3.24
2018-01-05T05:42:29.594Z,3.18
2018-01-05T05:43:29.578Z,3.20
2018-01-05T05:44:29.561Z,3.24
2018-01-05T05:45:29.549Z,3.18
2018-01-05T05:46:29.533Z,3.17
2018-01-05T05:47:29.521Z,3.15
2018-01-05T05:48:29.506Z,3.13
2018-01-05T05:49:29.492Z,3.14
2018-01-05T05:50:29.481Z,3.18
2018-01-05T05:51:29.464Z,3.18
2018-01-05T05:52:29.448Z,3.18
2018-01-05T05:53:29.437Z,3.20
2018-01-05T05:54:29.422Z,3.17
2018-01-05T05:55:29.403Z,3.23
2018-01-05T05:56:29.388Z,3.20
2018-01-05T05:57:29.376Z,3.24
2018-01-05T05:58:29.363Z,3.18
2018-01-05T05:59:29.348Z,3.21
2018-01-05T06:00:29.334Z,3.15
2018-01-05T06:01:29.318Z,3.05
2018-01-05T06:02:29.304Z,3.20
2018-01-05T06:03:29.290Z,3.03
2018-01-05T06:04:29.277Z,3.14
2018-01-05T06:05:29.258Z,3.03
2018-01-05T06:06:29.246Z,3.03
2018-01-05T06:07:29.232Z,3.06
2018-01-05T06:08:29.220Z,3.00
2018-01-05T06:09:29.205Z,2.97
2018-01-05T06:10:29.191Z,2.97
2018-01-05T06:11:29.175Z,2.92
2018-01-05T06:12:29.165Z,2.93
2018-01-05T06:13:29.154Z,2.79
2018-01-05T06:14:29.134Z,2.92
2018-01-05T06:15:29.119Z,2.85
2018-01-05T06:16:29.113Z,2.85
2018-01-05T06:17:29.091Z,2.92
2018-01-05T06:18:29.075Z,2.85
2018-01-05T06:19:29.072Z,2.77
2018-01-05T06:20:29.052Z,2.79
2018-01-05T06:21:29.033Z,2.77
2018-01-05T06:22:29.021Z,2.78
2018-01-05T06:23:29.007Z,2.78
2018-01-05T06:24:28.987Z,2.79
2018-01-05T06:25:28.974Z,2.81
2018-01-05T06:26:28.964Z,2.67
2018-01-05T06:27:28.946Z,2.67
2018-01-05T06:28:28.937Z,2.67
2018-01-05T06:29:28.917Z,2.72
2018-01-05T06:30:28.906Z,2.71
2018-01-05T06:31:28.889Z,2.81
2018-01-05T06:32:28.874Z,2.81
2018-01-05T06:33:28.863Z,2.85
2018-01-05T06:34:28.846Z,2.84
2018-01-05T06:35:28.830Z,2.81
2018-01-05T06:36:28.815Z,2.75
2018-01-05T06:37:28.807Z,2.74
2018-01-05T06:38:28.796Z,2.78
2018-01-05T06:39:28.772Z,2.78
2018-01-05T06:40:28.756Z,2.79
2018-01-05T06:41:28.743Z,2.74
2018-01-05T06:42:28.733Z,2.75
2018-01-05T06:43:28.726Z,2.79
2018-01-05T06:44:28.703Z,2.75
2018-01-05T06:45:28.686Z,2.77
2018-01-05T06:46:28.674Z,2.78
2018-01-05T06:47:28.661Z,2.81
2018-01-05T06:48:28.643Z,2.85
2018-01-05T06:49:28.630Z,2.87
2018-01-05T06:50:28.617Z,2.95
2018-01-05T06:51:28.597Z,3.02
2018-01-05T06:52:28.586Z,3.02
2018-01-05T06:53:28.570Z,2.99
2018-01-05T06:54:28.559Z,2.97
2018-01-05T06:55:28.545Z,2.96
2018-01-05T06:56:28.528Z,3.06
2018-01-05T06:57:28.516Z,2.97
2018-01-05T06:58:28.501Z,3.05
2018-01-05T06:59:28.520Z,3.08
2018-01-05T07:00:28.470Z,3.10
2018-01-05T07:01:28.455Z,3.06
2018-01-05T07:02:28.442Z,3.13
2018-01-05T07:03:28.424Z,3.18
2018-01-05T07:04:28.411Z,3.14
2018-01-05T07:05:28.398Z,3.08
2018-01-05T07:06:28.385Z,3.10
2018-01-05T07:07:28.369Z,3.11
2018-01-05T07:08:28.358Z,3.21
2018-01-05T07:09:28.342Z,3.10
2018-01-05T07:10:28.329Z,3.11
2018-01-05T07:11:28.311Z,3.13
2018-01-05T07:12:28.296Z,3.17
2018-01-05T07:13:28.287Z,3.18
2018-01-05T07:14:28.272Z,3.18
2018-01-05T07:15:28.252Z,3.24
2018-01-05T07:16:28.237Z,3.26
2018-01-05T07:17:28.219Z,3.24
2018-01-05T07:18:28.215Z,3.28
2018-01-05T07:19:28.196Z,3.32
2018-01-05T07:20:28.176Z,3.40
2018-01-05T07:21:28.165Z,3.42
2018-01-05T07:22:28.638Z,3.47
2018-01-05T07:23:28.137Z,3.42
2018-01-05T07:24:28.127Z,3.43
2018-01-05T07:25:28.107Z,3.51
2018-01-05T07:26:28.096Z,3.60
2018-01-05T07:27:28.080Z,3.54
2018-01-05T07:28:28.065Z,3.51
2018-01-05T07:29:28.050Z,3.58
2018-01-05T07:30:28.035Z,3.52
2018-01-05T07:31:28.027Z,3.50
2018-01-05T07:32:28.008Z,3.58
2018-01-05T07:33:27.992Z,3.69
2018-01-05T07:34:27.986Z,3.86
2018-01-05T07:35:27.977Z,3.97
2018-01-05T07:36:27.951Z,3.90
2018-01-05T07:37:27.935Z,3.91
2018-01-05T07:38:27.923Z,4.00
2018-01-05T07:39:27.960Z,3.88
2018-01-05T07:40:27.895Z,3.97
2018-01-05T07:41:27.877Z,3.86
2018-01-05T07:42:27.895Z,3.87
2018-01-05T07:43:27.850Z,3.88
2018-01-05T07:44:27.837Z,3.96
2018-01-05T07:45:27.815Z,3.84
2018-01-05T07:46:27.806Z,3.80
2018-01-05T07:47:27.796Z,3.84
2018-01-05T07:48:27.773Z,3.70
2018-01-05T07:49:27.768Z,3.73
2018-01-05T07:50:27.753Z,3.70
2018-01-05T07:51:27.733Z,3.62
2018-01-05T07:52:27.721Z,3.66
2018-01-05T07:53:27.709Z,3.52
2018-01-05T07:54:27.698Z,3.58
2018-01-05T07:55:27.675Z,3.42
2018-01-05T07:56:27.664Z,3.47
2018-01-05T07:57:27.650Z,3.36
2018-01-05T07:58:27.650Z,3.29
2018-01-05T07:59:27.625Z,3.23
2018-01-05T08:00:27.609Z,3.26
2018-01-05T08:01:27.594Z,3.21
2018-01-05T08:02:27.582Z,3.23
2018-01-05T08:03:27.570Z,3.26
2018-01-05T08:04:27.551Z,3.06
2018-01-05T08:05:27.539Z,3.08
2018-01-05T08:06:27.526Z,3.13
2018-01-05T08:07:27.512Z,3.00
2018-01-05T08:08:27.495Z,2.99
2018-01-05T08:09:27.475Z,2.99
2018-01-05T08:10:27.466Z,3.00
2018-01-05T08:11:27.451Z,2.99
2018-01-05T08:12:27.435Z,2.99
2018-01-05T08:13:27.422Z,3.02
2018-01-05T08:14:27.411Z,2.96
2018-01-05T08:15:27.392Z,2.95
2018-01-05T08:16:27.382Z,2.95
2018-01-05T08:17:27.364Z,2.95
2018-01-05T08:18:27.350Z,2.97
2018-01-05T08:19:27.340Z,3.00
2018-01-05T08:20:27.323Z,2.97
2018-01-05T08:21:27.310Z,2.99
2018-01-05T08:22:27.300Z,2.93
2018-01-05T08:23:27.276Z,2.97
2018-01-05T08:24:27.269Z,2.96
2018-01-05T08:25:27.249Z,2.92
2018-01-05T08:26:27.239Z,3.06
2018-01-05T08:27:27.227Z,3.00
2018-01-05T08:28:27.209Z,2.99
2018-01-05T08:29:27.194Z,2.99
2018-01-05T08:30:27.184Z,3.05
2018-01-05T08:31:27.162Z,3.03
2018-01-05T08:32:27.149Z,3.15
2018-01-05T08:33:27.138Z,3.06
2018-01-05T08:34:27.119Z,5.46
2018-01-05T08:35:27.109Z,8.81
2018-01-05T08:36:27.099Z,10.12
2018-01-05T08:37:27.076Z,9.84
2018-01-05T08:38:27.061Z,9.05
2018-01-05T08:39:27.052Z,8.28
2018-01-05T08:40:27.038Z,7.85
2018-01-05T08:41:27.028Z,7.06
2018-01-05T08:42:27.014Z,6.46
2018-01-05T08:43:26.992Z,6.25
2018-01-05T08:44:26.983Z,5.91
2018-01-05T08:45:26.972Z,5.65
2018-01-05T08:46:26.957Z,5.31
2018-01-05T08:47:26.941Z,5.27
2018-01-05T08:48:26.928Z,5.09
2018-01-05T08:49:26.914Z,5.07
2018-01-05T08:50:26.905Z,4.94
2018-01-05T08:51:26.892Z,4.86
2018-01-05T08:52:26.874Z,4.89
2018-01-05T08:53:26.860Z,4.88
2018-01-05T08:54:26.847Z,4.73
2018-01-05T08:55:26.836Z,4.67
2018-01-05T08:56:26.819Z,4.59
2018-01-05T08:57:26.808Z,4.50
2018-01-05T08:58:26.794Z,4.47
2018-01-05T08:59:26.779Z,4.40
2018-01-05T09:00:26.767Z,4.41
2018-01-05T09:01:26.753Z,4.37
2018-01-05T09:02:26.742Z,4.40
2018-01-05T09:03:26.722Z,4.29
2018-01-05T09:04:26.712Z,4.36
2018-01-05T09:05:26.699Z,4.42
2018-01-05T09:06:26.688Z,4.60
2018-01-05T09:07:26.673Z,4.72
2018-01-05T09:08:26.660Z,4.70
2018-01-05T09:09:26.646Z,4.86
2018-01-05T09:10:26.634Z,5.02
2018-01-05T09:11:26.619Z,5.60
2018-01-05T09:12:26.605Z,6.87
2018-01-05T09:13:26.591Z,6.79
2018-01-05T09:14:26.579Z,7.17
2018-01-05T09:15:26.567Z,7.32
2018-01-05T09:16:26.552Z,7.40
2018-01-05T09:17:26.544Z,7.43
2018-01-05T09:18:26.523Z,7.52
2018-01-05T09:19:26.514Z,7.39
2018-01-05T09:20:26.505Z,7.40
2018-01-05T09:21:26.489Z,7.42
2018-01-05T09:22:26.476Z,7.53
2018-01-05T09:23:26.462Z,7.57
2018-01-05T09:24:26.445Z,7.64
2018-01-05T09:25:26.440Z,7.68
2018-01-05T09:26:26.426Z,7.92
2018-01-05T09:27:26.414Z,7.80
2018-01-05T09:28:26.399Z,7.82
2018-01-05T09:29:26.385Z,7.79
2018-01-05T09:30:26.375Z,7.86
2018-01-05T09:31:26.397Z,7.92
2018-01-05T09:32:26.354Z,8.07
2018-01-05T09:33:26.340Z,8.18
2018-01-05T09:34:26.329Z,8.28
2018-01-05T09:35:26.317Z,8.20
2018-01-05T09:36:26.305Z,8.22
2018-01-05T09:37:26.295Z,8.22
2018-01-05T09:38:26.294Z,8.19
2018-01-05T09:39:26.264Z,8.15
2018-01-05T09:40:26.254Z,8.04
2018-01-05T09:41:26.245Z,8.07
2018-01-05T09:42:26.234Z,8.15
2018-01-05T09:43:26.224Z,8.12
2018-01-05T09:44:26.210Z,8.02
2018-01-05T09:45:26.199Z,7.97
2018-01-05T09:46:26.192Z,8.20
2018-01-05T09:47:26.178Z,8.19
2018-01-05T09:48:26.165Z,8.23
2018-01-05T09:49:26.164Z,8.30
2018-01-05T09:50:26.141Z,8.28
2018-01-05T09:51:26.123Z,8.36
2018-01-05T09:52:26.116Z,8.48
2018-01-05T09:53:26.106Z,8.48
2018-01-05T09:54:26.104Z,8.52
2018-01-05T09:55:26.088Z,8.48
2018-01-05T09:56:26.072Z,8.47
2018-01-05T09:57:26.063Z,8.74
2018-01-05T09:58:26.045Z,8.84
2018-01-05T09:59:26.038Z,8.79
2018-01-05T10:00:26.027Z,8.76
2018-01-05T10:01:26.016Z,8.74
2018-01-05T10:02:26.008Z,8.66
2018-01-05T10:03:25.992Z,8.62
2018-01-05T10:04:25.981Z,8.59
2018-01-05T10:05:25.969Z,8.47
2018-01-05T10:06:25.962Z,8.53
2018-01-05T10:07:25.947Z,8.48
2018-01-05T10:08:25.937Z,8.40
2018-01-05T10:09:25.935Z,8.29
2018-01-05T10:10:25.920Z,8.28
2018-01-05T10:11:25.903Z,8.18
2018-01-05T10:12:25.893Z,8.10
2018-01-05T10:13:25.882Z,8.12
2018-01-05T10:14:25.874Z,8.04
2018-01-05T10:15:25.859Z,8.07
2018-01-05T10:16:25.849Z,8.00
2018-01-05T10:17:25.841Z,8.04
2018-01-05T10:18:25.827Z,8.00
2018-01-05T10:19:25.810Z,8.07
2018-01-05T10:20:25.800Z,8.10
2018-01-05T10:21:25.793Z,8.12
2018-01-05T10:22:25.781Z,8.16
2018-01-05T10:23:25.771Z,8.10
2018-01-05T10:24:25.754Z,8.11
2018-01-05T10:25:25.746Z,8.16
2018-01-05T10:26:25.736Z,8.19
2018-01-05T10:27:25.730Z,8.08
2018-01-05T10:28:25.716Z,8.02
2018-01-05T10:29:25.708Z,8.15
2018-01-05T10:30:25.691Z,8.22
2018-01-05T10:31:25.679Z,8.33
2018-01-05T10:32:25.673Z,8.38
2018-01-05T10:33:25.659Z,8.58
2018-01-05T10:34:25.646Z,8.58
2018-01-05T10:35:25.633Z,8.73
2018-01-05T10:36:25.625Z,8.70
2018-01-05T10:37:25.613Z,8.98
2018-01-05T10:38:25.607Z,9.26
2018-01-05T10:39:25.596Z,9.53
2018-01-05T10:40:25.581Z,9.65
2018-01-05T10:41:25.565Z,9.81
2018-01-05T10:42:25.561Z,9.86
2018-01-05T10:43:25.549Z,9.87
2018-01-05T10:44:25.538Z,10.15
2018-01-05T10:45:25.530Z,10.42
2018-01-05T10:46:25.517Z,10.67
2018-01-05T10:47:25.514Z,10.88
2018-01-05T10:48:25.504Z,11.10
2018-01-05T10:49:25.490Z,11.14
2018-01-05T10:50:25.481Z,11.25
2018-01-05T10:51:25.459Z,11.58
2018-01-05T10:52:25.456Z,11.61
2018-01-05T10:53:25.440Z,11.90
2018-01-05T10:54:25.440Z,11.99
2018-01-05T10:55:25.428Z,12.21
2018-01-05T10:56:25.414Z,12.29
2018-01-05T10:57:25.403Z,12.57
2018-01-05T10:58:25.397Z,12.83
2018-01-05T10:59:25.383Z,13.00
2018-01-05T11:00:25.373Z,13.12
2018-01-05T11:01:25.368Z,13.10
2018-01-05T11:02:25.358Z,13.26
2018-01-05T11:03:25.347Z,13.26
2018-01-05T11:04:25.344Z,13.30
2018-01-05T11:05:25.326Z,13.11
2018-01-05T11:06:25.323Z,13.11
2018-01-05T11:07:25.316Z,13.12
2018-01-05T11:08:25.307Z,13.25
2018-01-05T11:09:25.297Z,13.26
2018-01-05T11:10:25.291Z,13.54
2018-01-05T11:11:25.275Z,13.59
2018-01-05T11:12:25.270Z,13.84
2018-01-05T11:13:25.258Z,13.89
2018-01-05T11:14:25.252Z,14.06
2018-01-05T11:15:25.242Z,14.21
2018-01-05T11:16:25.235Z,14.18
2018-01-05T11:17:25.229Z,14.22
2018-01-05T11:18:25.216Z,14.25
2018-01-05T11:19:25.208Z,14.46
2018-01-05T11:20:25.201Z,14.42
2018-01-05T11:21:25.193Z,14.24
2018-01-05T11:22:25.186Z,14.37
2018-01-05T11:23:25.176Z,14.27
2018-01-05T11:24:25.171Z,14.36
2018-01-05T11:25:25.161Z,14.32
2018-01-05T11:26:25.155Z,14.35
2018-01-05T11:27:25.148Z,14.36
2018-01-05T11:28:25.138Z,14.51
2018-01-05T11:29:25.132Z,14.61
2018-01-05T11:30:25.126Z,14.77
2018-01-05T11:31:25.116Z,14.94
2018-01-05T11:32:25.108Z,15.01
2018-01-05T11:33:25.099Z,14.98
2018-01-05T11:34:25.091Z,15.13
2018-01-05T11:35:25.086Z,15.27
2018-01-05T11:36:25.079Z,15.32
2018-01-05T11:37:25.071Z,15.36
2018-01-05T11:38:25.062Z,15.60
2018-01-05T11:39:25.060Z,15.64
2018-01-05T11:40:25.049Z,15.69
2018-01-05T11:41:25.040Z,15.75
2018-01-05T11:42:25.032Z,15.57
2018-01-05T11:43:25.027Z,15.44
2018-01-05T11:44:25.021Z,15.27
2018-01-05T11:45:25.015Z,15.23
2018-01-05T11:46:25.005Z,15.21
2018-01-05T11:47:24.995Z,15.20
2018-01-05T11:48:24.994Z,15.16
2018-01-05T11:49:24.988Z,15.31
2018-01-05T11:50:24.979Z,15.54
2018-01-05T11:51:24.975Z,15.65
2018-01-05T11:52:24.963Z,15.89
2018-01-05T11:53:24.954Z,16.04
2018-01-05T11:54:24.952Z,16.20
2018-01-05T11:55:24.946Z,16.39
2018-01-05T11:56:24.937Z,16.45
2018-01-05T11:57:24.932Z,16.09
2018-01-05T11:58:24.927Z,15.53
2018-01-05T11:59:24.920Z,14.80
2018-01-05T12:00:24.911Z,14.18
2018-01-05T12:01:24.905Z,13.64
2018-01-05T12:02:24.897Z,12.89
2018-01-05T12:03:24.891Z,12.92
2018-01-05T12:04:24.889Z,13.01
2018-01-05T12:05:24.874Z,13.22
2018-01-05T12:06:24.880Z,13.30
2018-01-05T12:07:24.872Z,13.44
2018-01-05T12:08:24.859Z,13.11
2018-01-05T12:09:24.848Z,12.95
2018-01-05T12:10:24.851Z,13.01
2018-01-05T12:11:24.837Z,12.82
2018-01-05T12:12:24.832Z,12.42
2018-01-05T12:13:24.829Z,12.02
2018-01-05T12:14:24.821Z,11.76
2018-01-05T12:15:24.813Z,11.60
2018-01-05T12:16:24.806Z,11.76
2018-01-05T12:17:24.801Z,11.85
2018-01-05T12:18:24.790Z,12.02
2018-01-05T12:19:24.789Z,12.19
2018-01-05T12:20:24.771Z,12.07
2018-01-05T12:21:24.772Z,11.79
2018-01-05T12:22:24.766Z,11.78
2018-01-05T12:23:24.748Z,11.85
2018-01-05T12:24:24.757Z,11.62
2018-01-05T12:25:24.741Z,11.79
2018-01-05T12:26:24.734Z,12.01
2018-01-05T12:27:24.727Z,12.05
2018-01-05T12:28:24.723Z,12.14
2018-01-05T12:29:24.714Z,12.27
2018-01-05T12:30:24.701Z,12.29
2018-01-05T12:31:24.695Z,12.24
2018-01-05T12:32:24.690Z,12.20
2018-01-05T12:33:24.679Z,12.24
2018-01-05T12:34:24.689Z,12.21
2018-01-05T12:35:24.666Z,12.20
2018-01-05T12:36:24.661Z,12.27
2018-01-05T12:37:24.649Z,11.98
2018-01-05T12:38:24.646Z,11.82
2018-01-05T12:39:24.639Z,11.65
2018-01-05T12:40:24.627Z,11.49
2018-01-05T12:41:24.619Z,11.06
2018-01-05T12:42:24.611Z,10.71
2018-01-05T12:43:24.605Z,10.45
2018-01-05T12:44:24.591Z,10.33
2018-01-05T12:45:24.584Z,10.33
2018-01-05T12:46:24.581Z,10.12
2018-01-05T12:47:24.564Z,10.09
2018-01-05T12:48:24.561Z,10.05
2018-01-05T12:49:24.554Z,10.05
2018-01-05T12:50:24.548Z,9.89
2018-01-05T12:51:24.537Z,9.94
2018-01-05T12:52:24.530Z,9.99
2018-01-05T12:53:24.520Z,10.01
2018-01-05T12:54:24.512Z,10.05
2018-01-05T12:55:24.503Z,10.11
2018-01-05T12:56:24.494Z,10.11
2018-01-05T12:57:24.488Z,10.18
2018-01-05T12:58:24.475Z,10.34
2018-01-05T12:59:24.466Z,10.40
2018-01-05T13:00:24.458Z,10.51
2018-01-05T13:01:24.451Z,10.56
2018-01-05T13:02:24.442Z,10.70
2018-01-05T13:03:24.433Z,10.68
2018-01-05T13:04:24.424Z,10.74
2018-01-05T13:05:24.419Z,10.70
2018-01-05T13:06:24.403Z,10.67
2018-01-05T13:07:24.397Z,10.67
2018-01-05T13:08:24.385Z,10.79
2018-01-05T13:09:24.381Z,10.88
2018-01-05T13:10:24.373Z,10.79
2018-01-05T13:11:24.385Z,10.78
2018-01-05T13:12:24.352Z,10.66
2018-01-05T13:13:24.342Z,10.68